createdAt,value
2018-09-28T00:01:11.567Z,3.70
2018-09-28T00:03:40.285Z,5.43
2018-09-28T00:06:08.956Z,2.00
2018-09-28T00:08:37.640Z,4.80
2018-09-28T00:11:06.549Z,1.40
2018-09-28T00:13:35.236Z,5.17
2018-09-28T00:16:03.903Z,1.20
2018-09-28T00:18:32.611Z,2.47
2018-09-28T00:21:01.309Z,2.60
2018-09-28T00:23:29.995Z,2.83
2018-09-28T00:25:58.716Z,2.03
2018-09-28T00:28:27.368Z,2.10
2018-09-28T00:30:56.047Z,2.47
2018-09-28T00:33:24.757Z,2.20
2018-09-28T00:35:53.471Z,1.80
2018-09-28T00:38:22.124Z,2.60
2018-09-28T00:40:50.812Z,1.80
2018-09-28T00:43:19.490Z,5.83
2018-09-28T00:45:48.167Z,1.97
2018-09-28T00:48:16.968Z,3.20
2018-09-28T00:50:49.464Z,2.23
2018-09-28T00:53:18.160Z,3.10
2018-09-28T00:55:46.835Z,3.67
2018-09-28T00:58:15.533Z,2.60
2018-09-28T01:00:44.212Z,2.73
2018-09-28T01:03:12.935Z,2.87
2018-09-28T01:05:41.637Z,3.07
2018-09-28T01:08:10.321Z,2.97
2018-09-28T01:10:39.061Z,1.77
2018-09-28T01:13:07.683Z,3.13
2018-09-28T01:15:36.372Z,4.27
2018-09-28T01:18:05.061Z,3.97
2018-09-28T01:20:33.744Z,2.77
2018-09-28T01:23:02.421Z,5.90
2018-09-28T01:25:31.098Z,4.33
2018-09-28T01:28:00.103Z,4.60
2018-09-28T01:30:29.013Z,2.50
2018-09-28T01:32:57.694Z,3.27
2018-09-28T01:35:26.423Z,3.00
2018-09-28T01:37:55.095Z,6.77
2018-09-28T01:40:23.800Z,3.27
2018-09-28T01:42:52.485Z,5.10
2018-09-28T01:45:21.171Z,3.70
2018-09-28T01:47:49.844Z,3.93
2018-09-28T01:50:18.534Z,6.77
2018-09-28T01:52:47.202Z,5.47
2018-09-28T01:55:15.948Z,4.33
2018-09-28T01:57:44.632Z,4.80
2018-09-28T02:00:13.320Z,5.33
2018-09-28T02:02:42.004Z,7.80
2018-09-28T02:05:10.891Z,5.63
2018-09-28T02:07:39.568Z,8.13
2018-09-28T02:10:08.362Z,4.03
2018-09-28T02:12:37.064Z,3.97
2018-09-28T02:15:05.757Z,5.07
2018-09-28T02:17:34.444Z,7.80
2018-09-28T02:20:03.132Z,5.07
2018-09-28T02:22:31.811Z,6.07
2018-09-28T02:25:00.507Z,4.63
2018-09-28T02:27:29.460Z,5.40
2018-09-28T02:29:58.219Z,4.00
2018-09-28T02:32:26.903Z,5.57
2018-09-28T02:34:55.596Z,4.63
2018-09-28T02:37:24.276Z,6.37
2018-09-28T02:39:52.972Z,5.53
2018-09-28T02:42:21.659Z,3.93
2018-09-28T02:44:50.350Z,7.10
2018-09-28T02:47:19.023Z,5.27
2018-09-28T02:49:47.707Z,5.63
2018-09-28T02:52:16.379Z,7.60
2018-09-28T02:54:45.068Z,6.57
2018-09-28T02:57:13.748Z,5.37
2018-09-28T02:59:42.477Z,5.77
2018-09-28T03:02:11.192Z,4.90
2018-09-28T03:04:39.939Z,6.30
2018-09-28T03:07:08.633Z,5.53
2018-09-28T03:09:37.311Z,5.63
2018-09-28T03:12:05.996Z,6.20
2018-09-28T03:14:34.703Z,6.72
2018-09-28T03:17:03.394Z,6.27
2018-09-28T03:19:32.107Z,6.67
2018-09-28T03:22:00.844Z,8.80
2018-09-28T03:24:29.968Z,8.80
2018-09-28T03:26:58.689Z,7.20
2018-09-28T03:29:27.472Z,8.27
2018-09-28T03:31:56.148Z,8.10
2018-09-28T03:34:24.904Z,9.27
2018-09-28T03:36:53.586Z,8.33
2018-09-28T03:39:22.264Z,10.33
2018-09-28T03:41:50.956Z,10.10
2018-09-28T03:44:19.732Z,7.73
2018-09-28T03:46:48.415Z,8.70
2018-09-28T03:49:17.088Z,7.33
2018-09-28T03:51:45.772Z,8.03
2018-09-28T03:54:14.459Z,12.20
2018-09-28T03:56:43.172Z,10.63
2018-09-28T03:59:11.852Z,9.40
2018-09-28T04:01:40.531Z,10.50
2018-09-28T04:04:09.247Z,9.73
2018-09-28T04:06:37.934Z,8.63
2018-09-28T04:09:08.292Z,9.57
2018-09-28T04:11:37.095Z,11.87
2018-09-28T04:14:05.779Z,9.77
2018-09-28T04:16:34.452Z,12.00
2018-09-28T04:19:03.136Z,10.40
2018-09-28T04:21:31.847Z,11.47
2018-09-28T04:24:00.528Z,10.57
2018-09-28T04:26:29.211Z,11.20
2018-09-28T04:28:57.891Z,14.93
2018-09-28T04:31:26.576Z,11.27
2018-09-28T04:33:55.251Z,11.70
2018-09-28T04:36:23.928Z,10.03
2018-09-28T04:38:52.599Z,9.07
2018-09-28T04:41:21.291Z,15.50
2018-09-28T04:43:49.959Z,13.07
2018-09-28T04:46:18.639Z,10.60
2018-09-28T04:48:47.311Z,9.83
2018-09-28T04:51:16.084Z,8.93
2018-09-28T04:53:44.759Z,15.07
2018-09-28T04:56:13.448Z,11.33
2018-09-28T04:58:42.123Z,10.83
2018-09-28T05:01:10.807Z,11.43
2018-09-28T05:03:39.481Z,13.27
2018-09-28T05:06:08.163Z,13.53
2018-09-28T05:08:36.844Z,10.87
2018-09-28T05:11:05.528Z,9.13
2018-09-28T05:13:34.203Z,8.17
2018-09-28T05:16:02.892Z,9.63
2018-09-28T05:18:31.579Z,8.67
2018-09-28T05:21:00.971Z,10.15
2018-09-28T05:23:29.700Z,10.17
2018-09-28T05:25:58.395Z,11.47
2018-09-28T05:28:27.071Z,10.90
2018-09-28T05:30:55.803Z,13.60
2018-09-28T05:33:24.532Z,10.80
2018-09-28T05:35:53.210Z,13.70
2018-09-28T05:38:21.911Z,11.77
2018-09-28T05:40:50.663Z,10.00
2018-09-28T05:43:19.751Z,9.57
2018-09-28T05:45:48.427Z,9.40
2018-09-28T05:48:17.099Z,14.07
2018-09-28T05:50:45.855Z,14.97
2018-09-28T05:53:14.528Z,9.13
2018-09-28T05:55:43.301Z,11.10
2018-09-28T05:58:17.235Z,9.73
2018-09-28T06:00:51.335Z,14.30
2018-09-28T06:03:21.827Z,15.03
2018-09-28T06:05:55.948Z,11.13
2018-09-28T06:08:24.619Z,13.03
2018-09-28T06:10:53.300Z,11.33
2018-09-28T06:13:22.400Z,11.90
2018-09-28T06:15:51.403Z,11.57
2018-09-28T06:18:20.211Z,11.10
2018-09-28T06:20:48.895Z,12.90
2018-09-28T06:23:17.566Z,11.80
2018-09-28T06:25:46.328Z,15.53
2018-09-28T06:28:14.948Z,18.43
2018-09-28T06:30:43.695Z,15.27
2018-09-28T06:33:12.384Z,20.37
2018-09-28T06:35:41.072Z,20.65
2018-09-28T06:38:09.771Z,22.63
2018-09-28T06:40:38.447Z,18.27
2018-09-28T06:43:07.140Z,21.43
2018-09-28T06:45:35.819Z,20.93
2018-09-28T06:48:04.516Z,22.27
2018-09-28T06:50:33.201Z,20.03
2018-09-28T06:53:01.954Z,23.00
2018-09-28T06:55:31.487Z,20.00
2018-09-28T06:58:00.223Z,19.07
2018-09-28T07:00:28.864Z,20.03
2018-09-28T07:02:57.579Z,24.10
2018-09-28T07:05:26.263Z,25.77
2018-09-28T07:07:54.955Z,20.70
2018-09-28T07:10:23.644Z,22.97
2018-09-28T07:12:52.322Z,18.97
2018-09-28T07:15:21.015Z,21.50
2018-09-28T07:17:49.830Z,25.33
2018-09-28T07:20:18.399Z,21.47
2018-09-28T07:22:47.128Z,20.63
2018-09-28T07:25:15.895Z,24.93
2018-09-28T07:27:44.552Z,20.13
2018-09-28T07:30:13.268Z,25.33
2018-09-28T07:32:41.939Z,14.73
2018-09-28T07:35:10.616Z,19.00
2018-09-28T07:37:39.303Z,16.77
2018-09-28T07:40:08.013Z,18.80
2018-09-28T07:42:36.711Z,14.17
2018-09-28T07:45:05.395Z,20.17
2018-09-28T07:47:34.091Z,18.53
2018-09-28T07:50:02.768Z,19.43
2018-09-28T07:52:32.096Z,24.67
2018-09-28T07:55:00.783Z,19.47
2018-09-28T07:57:29.480Z,18.83
2018-09-28T07:59:58.179Z,17.70
2018-09-28T08:02:26.867Z,18.57
2018-09-28T08:04:55.552Z,25.87
2018-09-28T08:07:24.247Z,34.43
2018-09-28T08:09:52.931Z,30.13
2018-09-28T08:12:21.629Z,34.27
2018-09-28T08:14:50.312Z,27.77
2018-09-28T08:17:19.008Z,24.27
2018-09-28T08:19:47.685Z,21.87
2018-09-28T08:22:16.379Z,31.70
2018-09-28T08:24:45.200Z,21.47
2018-09-28T08:27:13.775Z,29.03
2018-09-28T08:29:42.508Z,35.67
2018-09-28T08:32:11.207Z,24.13
2018-09-28T08:34:39.892Z,26.47
2018-09-28T08:37:08.595Z,24.47
2018-09-28T08:39:37.315Z,24.30
2018-09-28T08:42:06.396Z,18.83
2018-09-28T08:44:35.069Z,27.30
2018-09-28T08:47:03.750Z,26.63
2018-09-28T08:49:32.724Z,30.20
2018-09-28T08:52:01.412Z,36.43
2018-09-28T08:54:30.087Z,16.30
2018-09-28T08:56:58.783Z,29.00
2018-09-28T08:59:27.475Z,22.93
2018-09-28T09:01:56.199Z,34.90
2018-09-28T09:04:25.104Z,36.73
2018-09-28T09:06:54.444Z,34.60
2018-09-28T09:09:23.138Z,36.50
2018-09-28T09:11:51.817Z,39.73
2018-09-28T09:14:20.504Z,33.10
2018-09-28T09:16:49.187Z,38.33
2018-09-28T09:19:17.872Z,32.53
2018-09-28T09:21:46.551Z,32.37
2018-09-28T09:24:15.247Z,27.30
2018-09-28T09:26:44.100Z,41.70
2018-09-28T09:29:12.824Z,36.40
2018-09-28T09:31:41.560Z,35.17
2018-09-28T09:34:10.285Z,33.30
2018-09-28T09:36:39.054Z,29.50
2018-09-28T09:39:08.607Z,27.73
2018-09-28T09:41:37.307Z,26.70
2018-09-28T09:44:06.008Z,33.30
2018-09-28T09:46:34.692Z,36.40
2018-09-28T09:49:03.400Z,27.27
2018-09-28T09:51:33.007Z,24.00
2018-09-28T09:54:01.700Z,33.50
2018-09-28T09:56:30.379Z,24.37
2018-09-28T09:58:59.075Z,31.37
2018-09-28T10:01:33.330Z,34.20
2018-09-28T10:04:09.161Z,21.23
2018-09-28T10:06:37.872Z,38.17
2018-09-28T10:09:08.487Z,34.37
2018-09-28T10:11:37.339Z,49.80
2018-09-28T10:14:06.101Z,60.57
2018-09-28T10:16:34.779Z,56.95
2018-09-28T10:19:03.599Z,76.33
2018-09-28T10:21:33.252Z,65.00
2018-09-28T10:24:02.103Z,57.07
2018-09-28T10:26:30.840Z,63.60
2018-09-28T10:28:59.584Z,76.07
2018-09-28T10:31:28.312Z,54.20
2018-09-28T10:33:57.051Z,70.87
2018-09-28T10:36:25.740Z,72.23
2018-09-28T10:38:54.451Z,57.00
2018-09-28T10:41:23.139Z,80.63
2018-09-28T10:43:52.087Z,62.80
2018-09-28T10:46:20.780Z,71.50
2018-09-28T10:48:49.467Z,38.90
2018-09-28T10:51:18.440Z,80.50
2018-09-28T10:53:47.064Z,61.80
2018-09-28T10:56:15.751Z,85.70
2018-09-28T10:58:44.464Z,94.83
2018-09-28T11:01:13.208Z,74.23
2018-09-28T11:03:41.929Z,117.40
2018-09-28T11:06:10.752Z,139.70
2018-09-28T11:08:39.486Z,126.17
2018-09-28T11:11:08.171Z,123.33
2018-09-28T11:13:36.876Z,127.00
2018-09-28T11:16:05.564Z,110.23
2018-09-28T11:18:34.275Z,106.60
2018-09-28T11:21:03.875Z,75.53
2018-09-28T11:23:32.567Z,101.03
2018-09-28T11:26:01.252Z,73.27
2018-09-28T11:28:29.947Z,75.93
2018-09-28T11:30:58.631Z,74.60
2018-09-28T11:33:27.420Z,55.20
2018-09-28T11:35:56.022Z,53.83
2018-09-28T11:38:24.712Z,85.90
2018-09-28T11:40:53.487Z,57.37
2018-09-28T11:43:22.431Z,58.50
2018-09-28T11:45:51.061Z,49.67
2018-09-28T11:48:19.717Z,33.50
2018-09-28T11:50:48.387Z,42.47
2018-09-28T11:53:17.060Z,38.93
2018-09-28T11:55:45.740Z,37.27
2018-09-28T11:58:14.407Z,46.07
2018-09-28T12:00:43.092Z,41.77
2018-09-28T12:03:11.791Z,42.10
2018-09-28T12:05:40.443Z,25.23
2018-09-28T12:08:09.119Z,26.13
2018-09-28T12:10:37.792Z,25.33
2018-09-28T12:13:06.452Z,25.47
2018-09-28T12:15:35.163Z,21.27
2018-09-28T12:18:04.136Z,21.20
2018-09-28T12:20:32.811Z,17.47
2018-09-28T12:23:01.479Z,19.00
2018-09-28T12:25:30.151Z,13.60
2018-09-28T12:27:58.899Z,21.17
2018-09-28T12:30:27.671Z,15.30
2018-09-28T12:32:56.272Z,13.13
2018-09-28T12:35:24.952Z,17.47
2018-09-28T12:37:53.620Z,14.05
2018-09-28T12:40:22.304Z,13.97
2018-09-28T12:42:51.017Z,19.10
2018-09-28T12:45:19.701Z,23.33
2018-09-28T12:47:48.338Z,22.20
2018-09-28T12:50:17.074Z,10.87
2018-09-28T12:52:45.707Z,29.37
2018-09-28T12:55:14.391Z,23.83
2018-09-28T12:57:43.067Z,21.33
2018-09-28T13:00:11.758Z,17.30
2018-09-28T13:02:41.320Z,25.93
2018-09-28T13:05:09.951Z,23.10
2018-09-28T13:07:38.632Z,13.93
2018-09-28T13:10:07.508Z,19.30
2018-09-28T13:12:36.234Z,22.33
2018-09-28T13:15:05.052Z,22.80
2018-09-28T13:17:33.633Z,37.03
2018-09-28T13:20:02.321Z,23.33
2018-09-28T13:22:30.999Z,25.73
2018-09-28T13:24:59.684Z,26.20
2018-09-28T13:27:28.364Z,32.30
2018-09-28T13:29:57.055Z,34.50
2018-09-28T13:32:25.811Z,33.20
2018-09-28T13:34:54.429Z,35.43
2018-09-28T13:37:23.103Z,33.20
2018-09-28T13:39:51.783Z,31.93
2018-09-28T13:42:20.557Z,34.33
2018-09-28T13:44:49.256Z,37.07
2018-09-28T13:47:17.874Z,38.30
2018-09-28T13:49:46.572Z,37.73
2018-09-28T13:52:15.344Z,30.77
2018-09-28T13:54:44.851Z,34.90
2018-09-28T13:57:13.546Z,37.30
2018-09-28T13:59:42.226Z,30.73
2018-09-28T14:02:10.967Z,41.53
2018-09-28T14:04:39.645Z,37.13
2018-09-28T14:07:08.414Z,32.33
2018-09-28T14:09:37.002Z,39.50
2018-09-28T14:12:05.759Z,67.50
2018-09-28T14:14:34.419Z,23.67
2018-09-28T14:17:03.088Z,20.57
2018-09-28T14:19:31.767Z,31.23
2018-09-28T14:22:00.438Z,29.70
2018-09-28T14:24:29.228Z,33.87
2018-09-28T14:26:57.814Z,30.63
2018-09-28T14:29:26.540Z,33.90
2018-09-28T14:31:55.214Z,24.60
2018-09-28T14:34:23.910Z,26.90
2018-09-28T14:36:52.663Z,25.30
2018-09-28T14:39:21.407Z,25.15
2018-09-28T14:41:50.228Z,31.20
2018-09-28T14:44:18.948Z,24.40
2018-09-28T14:46:47.640Z,32.63
2018-09-28T14:49:16.891Z,18.70
2018-09-28T14:51:45.572Z,28.13
2018-09-28T14:54:14.340Z,23.23
2018-09-28T14:56:43.059Z,27.10
2018-09-28T14:59:11.727Z,24.07
2018-09-28T15:01:40.456Z,25.40
2018-09-28T15:04:09.154Z,27.90
2018-09-28T15:06:37.859Z,26.90
2018-09-28T15:09:07.294Z,27.17
2018-09-28T15:11:36.172Z,24.97
2018-09-28T15:14:04.854Z,26.40
2018-09-28T15:16:33.580Z,24.30
2018-09-28T15:19:02.232Z,21.53
2018-09-28T15:21:30.915Z,31.93
2018-09-28T15:23:59.633Z,23.90
2018-09-28T15:26:28.303Z,26.33
2018-09-28T15:28:56.971Z,23.53
2018-09-28T15:31:25.691Z,29.33
2018-09-28T15:33:54.532Z,21.37
2018-09-28T15:36:23.247Z,26.10
2018-09-28T15:38:51.927Z,25.77
2018-09-28T15:41:20.652Z,29.23
2018-09-28T15:43:49.319Z,25.90
2018-09-28T15:46:17.999Z,15.23
2018-09-28T15:48:47.382Z,19.47
2018-09-28T15:51:16.060Z,16.23
2018-09-28T15:53:44.731Z,25.07
2018-09-28T15:56:13.419Z,11.53
2018-09-28T15:58:42.082Z,15.07
2018-09-28T16:01:10.767Z,17.43
2018-09-28T16:03:39.444Z,13.60
2018-09-28T16:06:08.123Z,14.87
2018-09-28T16:08:36.786Z,13.63
2018-09-28T16:11:05.476Z,13.80
2018-09-28T16:13:34.333Z,12.13
2018-09-28T16:16:03.016Z,10.23
2018-09-28T16:18:31.744Z,9.83
2018-09-28T16:21:00.371Z,7.17
2018-09-28T16:23:29.033Z,7.77
2018-09-28T16:25:57.752Z,9.93
2018-09-28T16:28:26.415Z,11.20
2018-09-28T16:30:55.156Z,10.60
2018-09-28T16:33:23.831Z,9.50
2018-09-28T16:35:52.753Z,8.57
2018-09-28T16:38:21.560Z,9.43
2018-09-28T16:40:50.277Z,6.43
2018-09-28T16:43:19.127Z,8.10
2018-09-28T16:45:47.876Z,6.90
2018-09-28T16:48:16.543Z,10.33
2018-09-28T16:50:45.256Z,8.73
2018-09-28T16:53:14.175Z,9.73
2018-09-28T16:55:42.857Z,13.83
2018-09-28T16:58:11.566Z,7.23
2018-09-28T17:00:40.291Z,10.73
2018-09-28T17:03:09.403Z,4.30
2018-09-28T17:05:38.136Z,7.03
2018-09-28T17:08:07.107Z,9.20
2018-09-28T17:10:35.807Z,5.20
2018-09-28T17:13:04.488Z,13.83
2018-09-28T17:15:33.160Z,11.03
2018-09-28T17:18:01.815Z,4.57
2018-09-28T17:20:30.475Z,7.23
2018-09-28T17:22:59.143Z,6.97
2018-09-28T17:25:27.820Z,4.50
2018-09-28T17:27:56.507Z,6.07
2018-09-28T17:30:25.384Z,8.30
2018-09-28T17:32:54.046Z,8.77
2018-09-28T17:35:22.719Z,6.23
2018-09-28T17:37:51.616Z,4.93
2018-09-28T17:40:20.288Z,4.53
2018-09-28T17:42:48.963Z,5.00
2018-09-28T17:45:18.533Z,5.37
2018-09-28T17:47:47.209Z,5.33
2018-09-28T17:50:15.874Z,9.73
2018-09-28T17:52:44.536Z,4.83
2018-09-28T17:55:13.184Z,6.07
2018-09-28T17:57:41.923Z,7.83
2018-09-28T18:00:10.708Z,10.07
2018-09-28T18:02:39.371Z,7.53
2018-09-28T18:05:08.031Z,7.63
2018-09-28T18:07:36.793Z,6.77
2018-09-28T18:10:05.543Z,7.50
2018-09-28T18:12:34.221Z,9.37
2018-09-28T18:15:02.896Z,3.53
2018-09-28T18:17:31.562Z,7.07
2018-09-28T18:20:00.250Z,12.07
2018-09-28T18:22:28.975Z,4.67
2018-09-28T18:24:57.607Z,3.40
2018-09-28T18:27:26.327Z,12.07
2018-09-28T18:29:55.009Z,9.83
2018-09-28T18:32:23.683Z,1.63
2018-09-28T18:34:52.350Z,5.17
2018-09-28T18:37:21.088Z,5.83
2018-09-28T18:39:49.788Z,7.27
2018-09-28T18:42:19.331Z,7.20
2018-09-28T18:44:47.968Z,9.43
2018-09-28T18:47:16.635Z,7.87
2018-09-28T18:49:45.295Z,7.97
2018-09-28T18:52:14.016Z,6.20
2018-09-28T18:54:42.699Z,3.40
2018-09-28T18:57:11.362Z,4.07
2018-09-28T18:59:40.035Z,9.00
2018-09-28T19:02:08.713Z,2.23
2018-09-28T19:04:37.427Z,4.63
2018-09-28T19:07:06.163Z,6.63
2018-09-28T19:09:34.847Z,11.30
2018-09-28T19:12:03.523Z,4.00
2018-09-28T19:14:32.182Z,5.33
2018-09-28T19:17:00.891Z,1.53
2018-09-28T19:19:29.568Z,4.43
2018-09-28T19:21:58.264Z,3.53
2018-09-28T19:24:26.928Z,3.80
2018-09-28T19:26:55.635Z,3.17
2018-09-28T19:29:24.283Z,3.50
2018-09-28T19:31:52.960Z,8.23
2018-09-28T19:34:21.759Z,1.33
2018-09-28T19:36:50.562Z,3.60
2018-09-28T19:39:19.627Z,5.13
2018-09-28T19:41:48.367Z,1.87
2018-09-28T19:44:17.052Z,3.73
2018-09-28T19:46:45.776Z,5.63
2018-09-28T19:49:14.569Z,9.83
2018-09-28T19:51:43.277Z,6.57
2018-09-28T19:54:11.999Z,2.97
2018-09-28T19:56:41.470Z,5.53
2018-09-28T19:59:10.147Z,4.63
2018-09-28T20:01:38.814Z,8.07
2018-09-28T20:04:07.514Z,6.30
2018-09-28T20:06:36.295Z,7.10
2018-09-28T20:09:07.348Z,3.60
2018-09-28T20:11:36.031Z,6.40
2018-09-28T20:14:04.712Z,10.57
2018-09-28T20:16:33.383Z,4.67
2018-09-28T20:19:02.107Z,4.30
2018-09-28T20:21:30.824Z,6.83
2018-09-28T20:23:59.575Z,1.83
2018-09-28T20:26:28.240Z,7.13
2018-09-28T20:28:56.963Z,10.07
2018-09-28T20:31:25.640Z,1.93
2018-09-28T20:33:54.340Z,5.67
2018-09-28T20:36:23.012Z,2.37
2018-09-28T20:38:51.692Z,6.13
2018-09-28T20:41:20.567Z,2.73
2018-09-28T20:43:49.948Z,8.23
2018-09-28T20:46:18.608Z,3.60
2018-09-28T20:48:47.286Z,5.77
2018-09-28T20:51:15.947Z,2.57
2018-09-28T20:53:44.651Z,4.67
2018-09-28T20:56:13.316Z,4.07
2018-09-28T20:58:41.990Z,5.53
2018-09-28T21:01:10.759Z,7.73
2018-09-28T21:03:39.436Z,3.43
2018-09-28T21:06:08.107Z,6.53
2018-09-28T21:08:36.776Z,1.37
2018-09-28T21:11:05.447Z,9.93
2018-09-28T21:13:34.151Z,6.83
2018-09-28T21:16:02.787Z,8.30
2018-09-28T21:18:31.460Z,1.87
2018-09-28T21:21:00.119Z,5.63
2018-09-28T21:23:28.833Z,2.60
2018-09-28T21:25:57.500Z,2.80
2018-09-28T21:28:26.175Z,4.03
2018-09-28T21:30:54.855Z,3.87
2018-09-28T21:33:23.563Z,1.57
2018-09-28T21:35:58.755Z,1.83
2018-09-28T21:38:27.429Z,6.37
2018-09-28T21:40:56.176Z,2.97
2018-09-28T21:43:24.855Z,1.07
2018-09-28T21:45:53.552Z,4.43
2018-09-28T21:48:22.227Z,2.90
2018-09-28T21:50:50.899Z,2.33
2018-09-28T21:53:20.491Z,5.00
2018-09-28T21:55:49.172Z,11.37
2018-09-28T21:58:17.875Z,0.97
2018-09-28T22:00:50.827Z,6.03
2018-09-28T22:03:19.512Z,2.43
2018-09-28T22:05:48.189Z,3.57
2018-09-28T22:08:16.876Z,6.43
2018-09-28T22:10:45.548Z,4.73
2018-09-28T22:13:14.236Z,1.13
2018-09-28T22:15:42.903Z,5.20
2018-09-28T22:18:11.691Z,6.90
2018-09-28T22:20:40.372Z,5.03
2018-09-28T22:23:09.143Z,2.37
2018-09-28T22:25:37.824Z,2.93
2018-09-28T22:28:06.500Z,8.53
2018-09-28T22:30:35.175Z,2.42
2018-09-28T22:33:03.855Z,5.03
2018-09-28T22:35:32.536Z,5.50
2018-09-28T22:38:01.217Z,4.73
2018-09-28T22:40:29.903Z,4.57
2018-09-28T22:42:58.575Z,10.63
2018-09-28T22:45:27.256Z,5.20
2018-09-28T22:47:55.927Z,4.07
2018-09-28T22:50:24.607Z,7.07
2018-09-28T22:52:53.285Z,4.53
2018-09-28T22:55:21.962Z,2.30
2018-09-28T22:57:50.980Z,3.75
2018-09-28T23:00:19.659Z,4.27
2018-09-28T23:02:48.565Z,3.47
2018-09-28T23:05:17.244Z,4.97
2018-09-28T23:07:45.927Z,1.03
2018-09-28T23:10:14.612Z,3.57
2018-09-28T23:12:43.292Z,1.07
2018-09-28T23:15:11.971Z,3.10
2018-09-28T23:17:40.646Z,3.10
2018-09-28T23:20:09.328Z,2.83
2018-09-28T23:22:38.004Z,2.97
2018-09-28T23:25:06.679Z,1.97
2018-09-28T23:27:35.349Z,1.60
2018-09-28T23:30:04.063Z,3.30
2018-09-28T23:32:32.739Z,4.27
2018-09-28T23:35:01.423Z,5.17
2018-09-28T23:37:30.100Z,2.70
2018-09-28T23:39:58.781Z,7.53
2018-09-28T23:42:27.472Z,5.80
2018-09-28T23:44:56.151Z,2.43
2018-09-28T23:47:24.845Z,4.93
2018-09-28T23:49:53.507Z,4.37
2018-09-28T23:52:22.184Z,1.60
2018-09-28T23:54:51.760Z,5.35
2018-09-28T23:57:21.343Z,2.13
2018-09-28T23:59:50.020Z,3.83
